Time;durP1;ratioP1;P1;durP2;ratioP2;P2;SDS_P1;SDS_P2;PMS_P1;PMS_P2;Temp;Humidity;BMP_temperature;BMP_pressure;BME280_temperature;BME280_humidity;BME280_pressure;Samples;Min_cycle;Max_cycle;Signal;HPM_P1;HPM_P2
2024/01/01 00:00:08;;;;;;;30.77;14.73;;;8.50;99.90;;;;;;5032585;28;20386;-40
2024/01/01 00:02:34;;;;;;;33.47;11.88;;;8.50;99.90;;;;;;5031839;28;20478;-41
2024/01/01 00:04:59;;;;;;;25.33;12.90;;;8.40;99.90;;;;;;5032223;28;20088;-41
2024/01/01 00:07:25;;;;;;;31.83;13.90;;;8.40;99.90;;;;;;5032507;28;20453;-43
2024/01/01 00:09:51;;;;;;;21.00;9.63;;;8.40;99.90;;;;;;5032489;28;20056;-43
2024/01/01 00:12:17;;;;;;;21.25;9.30;;;8.30;99.90;;;;;;5032419;28;20466;-40
2024/01/01 00:14:43;;;;;;;18.90;8.30;;;8.30;99.90;;;;;;5032462;28;20036;-42
2024/01/01 00:17:09;;;;;;;20.25;10.35;;;8.30;99.90;;;;;;5031935;28;20447;-42
2024/01/01 00:19:34;;;;;;;30.15;9.98;;;8.30;99.90;;;;;;5032092;28;20036;-40
2024/01/01 00:22:02;;;;;;;22.92;10.07;;;8.30;99.90;;;;;;5036050;28;20025;-41
2024/01/01 00:24:28;;;;;;;20.88;9.93;;;8.30;99.90;;;;;;5036218;28;20037;-43
2024/01/01 00:26:53;;;;;;;37.42;15.05;;;8.30;99.90;;;;;;5035972;28;20100;-38
2024/01/01 00:29:19;;;;;;;26.88;11.38;;;8.30;99.90;;;;;;5036148;28;20489;-41
2024/01/01 00:31:45;;;;;;;27.92;11.00;;;8.20;99.90;;;;;;5035626;28;20021;-38
2024/01/01 00:34:10;;;;;;;20.27;9.18;;;8.20;99.90;;;;;;5035349;28;20029;-42
2024/01/01 00:36:36;;;;;;;18.90;8.35;;;8.20;99.90;;;;;;5035569;28;20528;-42
2024/01/01 00:39:02;;;;;;;17.85;8.40;;;8.30;99.90;;;;;;5035966;28;20401;-40
2024/01/01 00:41:28;;;;;;;13.93;7.65;;;8.20;99.90;;;;;;5035809;28;20375;-41
2024/01/01 00:43:53;;;;;;;13.70;5.82;;;8.30;99.90;;;;;;5035843;28;20084;-41
2024/01/01 00:46:19;;;;;;;22.23;7.75;;;8.20;99.90;;;;;;5035791;28;20028;-39
2024/01/01 00:48:45;;;;;;;21.20;6.90;;;8.20;99.90;;;;;;5035324;28;20026;-46
2024/01/01 00:51:11;;;;;;;15.13;6.63;;;8.20;99.90;;;;;;5035763;28;20028;-43
2024/01/01 00:53:37;;;;;;;14.63;5.82;;;8.20;99.90;;;;;;5035657;28;20104;-40
2024/01/01 00:56:03;;;;;;;11.95;5.80;;;8.20;99.90;;;;;;5034433;28;20044;-42
2024/01/01 00:58:29;;;;;;;15.43;5.63;;;8.30;99.90;;;;;;5035869;28;20021;-46
2024/01/01 01:00:56;;;;;;;15.73;5.03;;;8.30;99.90;;;;;;5035916;28;20083;-40
2024/01/01 01:03:21;;;;;;;8.57;4.77;;;8.30;99.90;;;;;;5035495;28;20539;-42
2024/01/01 01:05:47;;;;;;;12.07;4.10;;;8.20;99.90;;;;;;5035345;28;20268;-40
2024/01/01 01:08:13;;;;;;;13.43;4.45;;;8.20;99.90;;;;;;5035488;28;20132;-42
2024/01/01 01:10:39;;;;;;;8.45;3.83;;;8.20;99.90;;;;;;5035241;28;20025;-41
2024/01/01 01:13:05;;;;;;;14.15;5.00;;;8.30;99.90;;;;;;5034893;28;20112;-39
2024/01/01 01:15:31;;;;;;;7.80;3.53;;;8.20;99.90;;;;;;5034914;28;20389;-43
2024/01/01 01:17:57;;;;;;;10.98;4.03;;;8.30;99.90;;;;;;5034682;28;20041;-39
2024/01/01 01:20:23;;;;;;;8.02;3.63;;;8.20;99.90;;;;;;5035050;28;20090;-45
2024/01/01 01:22:48;;;;;;;18.98;3.65;;;8.20;99.90;;;;;;5034632;28;20366;-42
2024/01/01 01:25:14;;;;;;;7.68;3.55;;;8.20;99.90;;;;;;5035233;28;20029;-42
2024/01/01 01:27:42;;;;;;;6.20;3.20;;;8.20;99.90;;;;;;5035037;28;20029;-41
2024/01/01 01:30:09;;;;;;;12.95;3.03;;;8.20;99.90;;;;;;5035017;28;20482;-41
2024/01/01 01:32:35;;;;;;;8.27;3.50;;;8.20;99.90;;;;;;5065377;28;20030;-42
2024/01/01 01:35:00;;;;;;;17.17;3.78;;;8.20;99.90;;;;;;5034605;28;20106;-45
2024/01/01 01:37:26;;;;;;;5.63;2.95;;;8.20;99.90;;;;;;5043704;28;20021;-41
2024/01/01 01:39:52;;;;;;;10.52;2.72;;;8.20;99.90;;;;;;5047139;28;20057;-42
2024/01/01 01:42:17;;;;;;;7.90;2.38;;;8.20;99.90;;;;;;5034735;28;20037;-41
2024/01/01 01:44:43;;;;;;;5.15;2.47;;;8.30;99.90;;;;;;5034734;28;20033;-46
2024/01/01 01:47:10;;;;;;;6.35;2.47;;;8.20;99.90;;;;;;5034723;28;20489;-45
2024/01/01 01:49:36;;;;;;;13.52;1.67;;;8.30;99.90;;;;;;5033193;28;20486;-43
2024/01/01 01:52:03;;;;;;;4.80;2.05;;;8.30;99.90;;;;;;5034657;28;20032;-40
2024/01/01 01:54:31;;;;;;;8.98;2.20;;;8.30;99.90;;;;;;5034266;28;20026;-44
2024/01/01 01:56:57;;;;;;;7.80;1.50;;;8.30;99.90;;;;;;5034525;28;20037;-42
2024/01/01 01:59:23;;;;;;;12.55;1.70;;;8.20;99.90;;;;;;5034309;28;20026;-44
2024/01/01 02:01:49;;;;;;;14.13;2.17;;;8.20;99.90;;;;;;5034368;28;20029;-44
2024/01/01 02:04:15;;;;;;;6.97;2.10;;;8.20;99.90;;;;;;5032951;28;20395;-40
2024/01/01 02:06:41;;;;;;;7.00;1.85;;;8.10;99.90;;;;;;5033415;28;20018;-44
2024/01/01 02:09:07;;;;;;;3.15;1.40;;;8.10;99.90;;;;;;5034422;28;20112;-43
2024/01/01 02:11:33;;;;;;;10.05;2.05;;;8.00;99.90;;;;;;5033859;28;20570;-40
2024/01/01 02:14:09;;;;;;;2.90;1.35;;;7.90;99.90;;;;;;5034225;28;20036;-37
2024/01/01 02:16:35;;;;;;;4.15;1.88;;;7.70;99.90;;;;;;5033626;28;20497;-40
2024/01/01 02:19:01;;;;;;;8.40;2.30;;;7.60;99.90;;;;;;5033982;28;20042;-38
2024/01/01 02:21:27;;;;;;;8.48;1.67;;;7.50;99.90;;;;;;5034080;28;20037;-40
2024/01/01 02:23:54;;;;;;;6.55;1.80;;;7.40;99.90;;;;;;5033933;28;20025;-42
2024/01/01 02:26:20;;;;;;;5.88;1.52;;;7.30;99.90;;;;;;5033665;28;20034;-39
2024/01/01 02:28:46;;;;;;;10.68;1.75;;;7.30;99.90;;;;;;5034252;28;20506;-42
2024/01/01 02:31:11;;;;;;;2.53;1.02;;;7.30;99.90;;;;;;5033637;28;20017;-41
2024/01/01 02:33:37;;;;;;;11.23;1.90;;;7.20;99.90;;;;;;5033441;28;20037;-41
2024/01/01 02:36:03;;;;;;;8.10;2.35;;;7.20;99.90;;;;;;5033567;28;20026;-41
2024/01/01 02:38:28;;;;;;;6.55;1.67;;;7.20;99.90;;;;;;5034016;28;20655;-41
2024/01/01 02:40:54;;;;;;;9.35;1.42;;;7.20;99.90;;;;;;5033402;28;20373;-38
2024/01/01 02:43:20;;;;;;;6.85;1.58;;;7.20;99.90;;;;;;5032933;28;20056;-41
2024/01/01 02:45:45;;;;;;;17.98;2.13;;;7.20;99.90;;;;;;5033644;28;20025;-40
2024/01/01 02:48:11;;;;;;;6.82;2.72;;;7.30;99.90;;;;;;5033326;28;20036;-40
2024/01/01 02:50:37;;;;;;;19.02;3.15;;;7.20;99.90;;;;;;5031706;28;20029;-42
2024/01/01 02:53:03;;;;;;;5.32;1.95;;;7.30;99.90;;;;;;5033162;28;20077;-42
2024/01/01 02:55:28;;;;;;;4.63;2.05;;;7.30;99.90;;;;;;5033376;28;20029;-45
2024/01/01 02:57:54;;;;;;;9.93;2.35;;;7.20;99.90;;;;;;5033064;28;20389;-43
2024/01/01 03:00:20;;;;;;;6.88;1.63;;;7.20;99.90;;;;;;5033124;28;20378;-41
2024/01/01 03:02:45;;;;;;;5.75;1.85;;;7.20;99.90;;;;;;5033275;28;20041;-42
2024/01/01 03:05:11;;;;;;;13.60;3.13;;;7.20;99.90;;;;;;5032945;28;20022;-40
2024/01/01 03:07:37;;;;;;;9.05;2.47;;;7.30;99.90;;;;;;5031874;28;20025;-38
2024/01/01 03:10:04;;;;;;;6.75;2.20;;;7.30;99.90;;;;;;5033117;28;20125;-40
2024/01/01 03:12:31;;;;;;;9.73;1.93;;;7.30;99.90;;;;;;5033149;28;20108;-37
2024/01/01 03:14:56;;;;;;;4.35;1.05;;;7.30;99.90;;;;;;5032968;28;20661;-40
2024/01/01 03:17:22;;;;;;;9.77;1.50;;;7.30;99.90;;;;;;5032910;28;20140;-40
2024/01/01 03:19:48;;;;;;;12.48;1.95;;;7.40;99.90;;;;;;5032809;28;20444;-39
2024/01/01 03:22:13;;;;;;;9.05;2.15;;;7.40;99.90;;;;;;5033311;28;20393;-39
2024/01/01 03:24:39;;;;;;;13.30;2.15;;;7.40;99.90;;;;;;5032598;28;20030;-39
2024/01/01 03:27:05;;;;;;;17.20;1.98;;;7.50;99.90;;;;;;5032933;28;20124;-40
2024/01/01 03:29:31;;;;;;;12.40;1.75;;;7.50;99.90;;;;;;5032937;28;20036;-55
2024/01/01 03:31:56;;;;;;;13.05;2.05;;;7.50;99.90;;;;;;5032687;28;20417;-53
2024/01/01 03:34:22;;;;;;;16.60;2.40;;;7.50;99.90;;;;;;5032770;28;20462;-53
2024/01/01 03:36:49;;;;;;;5.97;2.05;;;7.50;99.90;;;;;;5032870;28;20544;-55
2024/01/01 03:39:15;;;;;;;7.50;2.50;;;7.50;99.90;;;;;;5031584;28;20033;-54
2024/01/01 03:41:41;;;;;;;15.55;2.75;;;7.40;99.90;;;;;;5032652;28;20475;-53
2024/01/01 03:44:06;;;;;;;11.05;2.13;;;7.50;99.90;;;;;;5032445;28;20029;-54
2024/01/01 03:46:32;;;;;;;14.43;1.98;;;7.50;99.90;;;;;;5032766;28;20123;-54
2024/01/01 03:48:57;;;;;;;8.23;1.77;;;7.60;99.90;;;;;;5032478;28;20377;-51
2024/01/01 03:51:23;;;;;;;14.23;2.72;;;7.50;99.90;;;;;;5032713;28;20036;-52
2024/01/01 03:53:50;;;;;;;18.63;2.70;;;7.60;99.90;;;;;;5032419;28;20437;-53
2024/01/01 03:56:15;;;;;;;10.13;1.80;;;7.60;99.90;;;;;;5034945;28;20133;-53
2024/01/01 03:58:41;;;;;;;11.45;2.90;;;7.60;99.90;;;;;;5036648;28;20045;-53
2024/01/01 04:01:12;;;;;;;17.40;2.10;;;7.60;99.90;;;;;;5036821;28;20037;-51
2024/01/01 04:03:38;;;;;;;15.02;3.50;;;7.60;99.90;;;;;;5036433;28;20083;-54
2024/01/01 04:06:03;;;;;;;11.90;1.70;;;7.60;99.90;;;;;;5036658;28;20029;-53
2024/01/01 04:08:29;;;;;;;14.27;2.00;;;7.60;99.90;;;;;;5036592;28;20030;-53
2024/01/01 04:10:55;;;;;;;16.20;2.20;;;7.60;99.90;;;;;;5035933;28;20482;-53
2024/01/01 04:13:20;;;;;;;14.45;2.95;;;7.60;99.90;;;;;;5036549;28;20371;-53
2024/01/01 04:15:46;;;;;;;17.58;3.05;;;7.60;99.90;;;;;;5036331;28;20034;-51
2024/01/01 04:18:12;;;;;;;11.25;2.38;;;7.60;99.90;;;;;;5035964;28;20060;-52
2024/01/01 04:20:37;;;;;;;11.88;2.35;;;7.60;99.90;;;;;;5035789;28;20393;-53
2024/01/01 04:23:03;;;;;;;16.35;2.55;;;7.60;99.90;;;;;;5036239;28;20041;-49
2024/01/01 04:25:29;;;;;;;19.98;2.38;;;7.60;99.90;;;;;;5036192;28;20424;-51
2024/01/01 04:27:54;;;;;;;14.88;1.38;;;7.60;99.90;;;;;;5036272;28;20025;-52
2024/01/01 04:30:20;;;;;;;4.65;1.00;;;7.60;99.90;;;;;;5035798;28;20119;-51
2024/01/01 04:32:46;;;;;;;12.25;1.90;;;7.60;99.90;;;;;;5035584;28;20057;-49
2024/01/01 04:35:12;;;;;;;17.45;1.83;;;7.60;99.90;;;;;;5036076;28;20450;-49
2024/01/01 04:37:37;;;;;;;22.80;2.38;;;7.60;99.90;;;;;;5034917;28;20075;-52
2024/01/01 04:40:05;;;;;;;9.02;2.70;;;7.60;99.90;;;;;;5035949;28;20026;-49
2024/01/01 04:42:30;;;;;;;13.50;1.90;;;7.60;99.90;;;;;;5034768;28;20474;-53
2024/01/01 04:44:56;;;;;;;7.97;2.17;;;7.60;99.90;;;;;;5029280;28;20334;-53
2024/01/01 04:47:22;;;;;;;13.95;2.58;;;7.60;99.90;;;;;;5014946;28;20034;-48
2024/01/01 04:49:48;;;;;;;5.55;1.67;;;7.60;99.90;;;;;;5033392;28;20030;-50
2024/01/01 04:52:13;;;;;;;11.15;1.63;;;7.60;99.90;;;;;;5035753;28;20029;-49
2024/01/01 04:54:39;;;;;;;9.45;1.60;;;7.60;99.90;;;;;;5035471;28;20028;-47
2024/01/01 04:57:05;;;;;;;6.47;2.17;;;7.60;99.90;;;;;;5035938;28;20029;-50
2024/01/01 04:59:30;;;;;;;11.30;1.77;;;7.60;99.90;;;;;;5034363;28;20041;-50
2024/01/01 05:01:56;;;;;;;11.90;2.13;;;7.60;99.90;;;;;;5035403;28;20080;-52
2024/01/01 05:04:22;;;;;;;4.43;2.35;;;7.70;99.90;;;;;;5035119;28;20033;-50
2024/01/01 05:06:48;;;;;;;11.02;3.30;;;7.70;99.90;;;;;;5035111;28;20082;-52
2024/01/01 05:09:13;;;;;;;10.00;2.28;;;7.70;99.90;;;;;;5035435;28;20033;-48
2024/01/01 05:11:40;;;;;;;14.45;2.35;;;7.70;99.90;;;;;;5035232;28;20390;-49
2024/01/01 05:14:06;;;;;;;11.82;2.25;;;7.70;99.90;;;;;;5035186;28;20036;-51
2024/01/01 05:16:33;;;;;;;8.88;1.83;;;7.70;99.90;;;;;;5035020;28;20025;-52
2024/01/01 05:18:59;;;;;;;11.10;2.27;;;7.70;99.90;;;;;;5034769;28;20087;-49
2024/01/01 05:21:24;;;;;;;9.65;1.75;;;7.80;99.90;;;;;;5034906;28;20026;-52
2024/01/01 05:23:51;;;;;;;16.67;2.30;;;7.80;99.90;;;;;;5035203;28;20107;-50
2024/01/01 05:26:17;;;;;;;12.98;3.13;;;7.80;99.90;;;;;;5033960;28;20025;-49
2024/01/01 05:28:43;;;;;;;6.93;1.67;;;7.90;99.90;;;;;;5034785;28;20026;-50
2024/01/01 05:31:08;;;;;;;17.88;2.15;;;7.90;99.90;;;;;;5033777;28;20072;-50
2024/01/01 05:33:35;;;;;;;5.10;1.88;;;7.80;99.90;;;;;;5034690;28;20029;-49
2024/01/01 05:36:01;;;;;;;8.15;2.03;;;7.80;99.90;;;;;;5034640;28;20087;-50
2024/01/01 05:38:27;;;;;;;17.00;2.50;;;7.80;99.90;;;;;;5034963;28;20030;-52
2024/01/01 05:40:53;;;;;;;9.75;1.88;;;7.80;99.90;;;;;;5034690;28;20040;-47
2024/01/01 05:43:21;;;;;;;11.75;1.85;;;7.80;99.90;;;;;;5034980;28;20463;-45
2024/01/01 05:45:47;;;;;;;18.52;2.53;;;7.80;99.90;;;;;;5034596;28;20383;-51
2024/01/01 05:48:13;;;;;;;14.60;2.33;;;7.80;99.90;;;;;;5035105;28;20095;-51
2024/01/01 05:50:39;;;;;;;17.70;2.38;;;7.70;99.90;;;;;;5034647;28;20096;-51
2024/01/01 05:53:06;;;;;;;16.90;3.00;;;7.70;99.90;;;;;;5034655;28;20160;-44
2024/01/01 05:55:33;;;;;;;26.48;2.33;;;7.70;99.90;;;;;;5033095;28;20021;-49
2024/01/01 05:57:58;;;;;;;11.80;1.92;;;7.70;99.90;;;;;;5034472;28;20470;-49
2024/01/01 06:00:25;;;;;;;19.95;2.10;;;7.70;99.90;;;;;;5034291;28;20030;-51
2024/01/01 06:02:50;;;;;;;9.07;1.30;;;7.70;99.90;;;;;;5034021;28;20486;-50
2024/01/01 06:05:16;;;;;;;3.75;1.27;;;7.70;99.90;;;;;;5034403;28;20024;-48
2024/01/01 06:07:42;;;;;;;12.02;1.73;;;7.70;99.90;;;;;;5033183;28;20026;-45
2024/01/01 06:10:08;;;;;;;11.93;1.55;;;7.80;99.90;;;;;;5034517;28;20057;-46
2024/01/01 06:12:33;;;;;;;12.38;2.78;;;7.80;99.90;;;;;;5033953;28;20525;-49
2024/01/01 06:14:59;;;;;;;7.90;1.63;;;7.80;99.90;;;;;;5033950;28;20030;-46
2024/01/01 06:17:25;;;;;;;21.05;2.13;;;7.70;99.90;;;;;;5034031;28;20048;-50
2024/01/01 06:19:50;;;;;;;13.18;1.92;;;7.70;99.90;;;;;;5033004;28;20076;-46
2024/01/01 06:22:16;;;;;;;8.73;1.58;;;7.70;99.90;;;;;;5033645;28;20037;-49
2024/01/01 06:24:42;;;;;;;11.93;1.67;;;7.70;99.90;;;;;;5032750;28;20098;-49
2024/01/01 06:27:07;;;;;;;11.23;2.63;;;7.70;99.90;;;;;;5033902;28;20022;-46
2024/01/01 06:29:33;;;;;;;5.40;1.52;;;7.60;99.90;;;;;;5033754;28;20025;-46
2024/01/01 06:31:59;;;;;;;10.57;1.48;;;7.60;99.90;;;;;;5033923;28;20105;-49
2024/01/01 06:34:24;;;;;;;9.45;1.63;;;7.60;99.90;;;;;;5033682;28;20021;-47
2024/01/01 06:36:50;;;;;;;3.88;1.50;;;7.60;99.90;;;;;;5032538;28;20026;-48
2024/01/01 06:39:16;;;;;;;12.05;1.88;;;7.60;99.90;;;;;;5033586;28;20029;-49
2024/01/01 06:41:41;;;;;;;11.32;1.88;;;7.60;99.90;;;;;;5034102;28;20040;-50
2024/01/01 06:44:07;;;;;;;8.77;1.67;;;7.70;99.90;;;;;;5032790;28;20029;-47
2024/01/01 06:46:33;;;;;;;10.88;1.58;;;7.70;99.90;;;;;;5033718;28;20034;-49
2024/01/01 06:48:58;;;;;;;9.93;2.03;;;7.70;99.90;;;;;;5032587;28;20401;-48
2024/01/01 06:51:24;;;;;;;15.02;1.48;;;7.80;99.90;;;;;;5033416;28;20385;-50
2024/01/01 06:53:50;;;;;;;14.70;2.03;;;7.80;99.90;;;;;;5033524;28;20450;-47
2024/01/01 06:56:15;;;;;;;8.40;1.70;;;7.80;99.90;;;;;;5033257;28;20501;-47
2024/01/01 06:58:41;;;;;;;7.30;1.50;;;7.80;99.90;;;;;;5033460;28;20030;-48
2024/01/01 07:01:07;;;;;;;10.05;2.13;;;7.80;99.90;;;;;;5033398;28;20053;-49
2024/01/01 07:03:33;;;;;;;15.15;2.15;;;7.80;99.90;;;;;;5031628;28;20076;-49
2024/01/01 07:05:58;;;;;;;6.57;1.45;;;7.80;99.90;;;;;;5033133;28;20029;-48
2024/01/01 07:08:24;;;;;;;9.38;1.58;;;7.70;99.90;;;;;;5033291;28;20025;-48
2024/01/01 07:10:49;;;;;;;12.35;2.33;;;7.70;99.90;;;;;;5033299;28;20489;-49
2024/01/01 07:13:15;;;;;;;6.05;1.92;;;7.70;99.90;;;;;;5033197;28;20029;-51
2024/01/01 07:15:42;;;;;;;7.65;2.22;;;7.70;99.90;;;;;;5032865;28;20036;-49
2024/01/01 07:18:08;;;;;;;11.02;1.58;;;7.70;99.90;;;;;;5033077;28;20095;-49
2024/01/01 07:20:34;;;;;;;11.02;1.83;;;7.70;99.90;;;;;;5031034;28;20116;-51
2024/01/01 07:23:00;;;;;;;12.20;1.77;;;7.70;99.90;;;;;;5032564;28;20145;-48
2024/01/01 07:25:26;;;;;;;15.70;1.83;;;7.70;99.90;;;;;;5032126;28;20488;-47
2024/01/01 07:27:53;;;;;;;9.63;1.75;;;7.60;99.90;;;;;;5033252;28;20026;-49
2024/01/01 07:30:19;;;;;;;8.00;1.80;;;7.60;99.90;;;;;;5032065;28;20021;-50
2024/01/01 07:32:45;;;;;;;5.95;1.73;;;7.60;99.90;;;;;;5032867;28;20484;-48
2024/01/01 07:35:10;;;;;;;16.00;1.67;;;7.60;99.90;;;;;;5032829;28;20536;-45
2024/01/01 07:37:36;;;;;;;11.05;1.73;;;7.60;99.90;;;;;;5032890;28;20055;-49
2024/01/01 07:40:02;;;;;;;3.60;1.40;;;7.60;99.90;;;;;;5032545;28;20040;-50
2024/01/01 07:42:28;;;;;;;10.02;1.40;;;7.70;99.90;;;;;;5032874;28;20565;-50
2024/01/01 07:44:54;;;;;;;7.80;1.30;;;7.70;99.90;;;;;;5032475;28;20033;-49
2024/01/01 07:47:19;;;;;;;6.20;1.25;;;7.70;99.90;;;;;;5032715;28;20032;-49
2024/01/01 07:49:45;;;;;;;11.32;1.48;;;7.80;99.90;;;;;;5032438;28;20478;-50
2024/01/01 07:52:12;;;;;;;9.40;1.52;;;7.80;99.90;;;;;;5032642;28;20026;-50
2024/01/01 07:54:39;;;;;;;8.68;1.35;;;7.80;99.90;;;;;;5032521;28;20064;-48
2024/01/01 07:57:08;;;;;;;14.15;3.03;;;7.70;99.90;;;;;;5032476;28;20026;-48
2024/01/01 07:59:34;;;;;;;15.38;1.70;;;7.70;99.90;;;;;;5032476;28;20072;-49
2024/01/01 08:02:00;;;;;;;5.72;1.52;;;7.60;99.90;;;;;;5019099;28;20486;-50
2024/01/01 08:04:26;;;;;;;8.38;1.13;;;7.70;99.90;;;;;;5032412;28;20037;-51
2024/01/01 08:06:52;;;;;;;7.20;1.30;;;7.60;99.90;;;;;;5032540;28;20470;-51
2024/01/01 08:09:18;;;;;;;10.60;2.15;;;7.50;99.90;;;;;;5032284;28;20032;-51
2024/01/01 08:11:43;;;;;;;10.40;1.98;;;7.50;99.90;;;;;;5032526;28;20018;-50
2024/01/01 08:14:09;;;;;;;7.07;2.13;;;7.50;99.90;;;;;;5032172;28;20032;-48
2024/01/01 08:16:35;;;;;;;14.98;1.45;;;7.50;99.90;;;;;;5033039;28;20030;-48
2024/01/01 08:19:01;;;;;;;5.55;1.50;;;7.60;99.90;;;;;;5031818;28;20037;-49
2024/01/01 08:21:26;;;;;;;6.93;1.05;;;7.60;99.90;;;;;;5032388;28;20478;-52
2024/01/01 08:23:53;;;;;;;4.78;1.02;;;7.70;99.90;;;;;;5032050;28;20053;-52
2024/01/01 08:26:18;;;;;;;7.43;1.25;;;7.70;99.90;;;;;;5032402;28;20489;-52
2024/01/01 08:28:51;;;;;;;13.27;1.75;;;7.70;99.90;;;;;;5032225;28;20025;-51
2024/01/01 08:31:18;;;;;;;18.42;2.97;;;7.80;99.90;;;;;;5032287;28;20492;-48
2024/01/01 08:33:44;;;;;;;11.43;1.33;;;7.80;99.90;;;;;;5030729;28;20112;-52
2024/01/01 08:36:10;;;;;;;7.63;0.90;;;7.80;99.90;;;;;;5032363;28;20513;-50
2024/01/01 08:38:35;;;;;;;6.30;1.40;;;7.80;99.90;;;;;;5031970;28;20363;-48
2024/01/01 08:41:01;;;;;;;9.93;1.42;;;7.80;99.90;;;;;;5032532;28;20030;-51
2024/01/01 08:43:26;;;;;;;3.78;1.00;;;7.80;99.90;;;;;;5033773;28;20029;-47
2024/01/01 08:45:52;;;;;;;7.65;1.45;;;7.80;99.90;;;;;;5035797;28;20367;-52
2024/01/01 08:48:18;;;;;;;5.70;0.73;;;7.80;99.90;;;;;;5035367;28;20030;-53
2024/01/01 08:50:43;;;;;;;7.72;1.17;;;7.80;99.90;;;;;;5035539;28;20041;-52
2024/01/01 08:53:09;;;;;;;2.70;0.90;;;7.90;99.90;;;;;;5035836;28;20494;-51
2024/01/01 08:55:34;;;;;;;6.60;0.90;;;7.90;99.90;;;;;;5035764;28;20029;-49
2024/01/01 08:58:00;;;;;;;10.60;1.45;;;7.90;99.90;;;;;;5035737;28;20053;-48
2024/01/01 09:00:26;;;;;;;6.22;1.05;;;7.80;99.90;;;;;;5033900;28;20535;-51
2024/01/01 09:02:52;;;;;;;12.05;1.63;;;7.80;99.90;;;;;;5033997;28;20030;-47
2024/01/01 09:05:17;;;;;;;12.93;2.40;;;7.80;99.90;;;;;;5034985;28;20037;-51
2024/01/01 09:07:43;;;;;;;6.55;1.38;;;7.80;99.90;;;;;;5035182;28;20441;-53
2024/01/01 09:10:09;;;;;;;11.65;1.55;;;7.80;99.90;;;;;;5035385;28;20018;-50
2024/01/01 09:12:34;;;;;;;6.97;1.13;;;7.80;99.90;;;;;;5035382;28;20079;-47
2024/01/01 09:15:00;;;;;;;6.18;0.88;;;7.80;99.90;;;;;;5034117;28;20037;-50
2024/01/01 09:17:25;;;;;;;3.15;1.40;;;7.90;99.90;;;;;;5034856;28;20048;-52
2024/01/01 09:19:52;;;;;;;12.48;1.42;;;7.90;99.90;;;;;;5035004;28;20025;-49
2024/01/01 09:22:18;;;;;;;4.07;0.77;;;7.80;99.90;;;;;;5035448;28;20498;-51
2024/01/01 09:24:44;;;;;;;6.88;0.60;;;7.90;99.90;;;;;;5034892;28;20029;-52
2024/01/01 09:27:10;;;;;;;13.52;1.15;;;7.90;99.90;;;;;;5033984;28;20537;-51
2024/01/01 09:29:35;;;;;;;8.32;1.02;;;7.90;99.90;;;;;;5035156;28;20100;-52
2024/01/01 09:32:01;;;;;;;3.03;0.80;;;7.90;99.90;;;;;;5035092;28;20025;-50
2024/01/01 09:34:26;;;;;;;3.63;0.85;;;7.90;99.90;;;;;;5034815;28;20025;-50
2024/01/01 09:36:52;;;;;;;8.25;1.67;;;7.90;99.90;;;;;;5035015;28;20028;-52
2024/01/01 09:39:18;;;;;;;3.05;0.60;;;7.90;99.90;;;;;;5033510;28;20030;-48
2024/01/01 09:41:43;;;;;;;2.20;1.10;;;7.90;99.90;;;;;;5034942;28;20025;-50
2024/01/01 09:44:11;;;;;;;2.05;0.52;;;7.90;99.90;;;;;;5033818;28;20112;-50
2024/01/01 09:46:37;;;;;;;10.43;0.93;;;7.90;99.90;;;;;;5034418;28;20029;-51
2024/01/01 09:49:03;;;;;;;7.53;0.57;;;7.90;99.90;;;;;;5034662;28;20540;-50
2024/01/01 09:51:29;;;;;;;0.50;0.45;;;7.90;99.90;;;;;;5034755;28;20493;-47
2024/01/01 09:53:55;;;;;;;3.72;0.90;;;7.90;99.90;;;;;;5033400;28;20485;-47
2024/01/01 09:56:21;;;;;;;3.67;1.25;;;7.90;99.90;;;;;;5034288;28;20022;-52
2024/01/01 09:58:47;;;;;;;5.45;0.65;;;7.90;99.90;;;;;;5034576;28;20140;-46
2024/01/01 10:01:19;;;;;;;8.10;1.20;;;7.90;99.90;;;;;;5033977;28;20506;-49
2024/01/01 10:04:01;;;;;;;3.22;0.57;;;7.90;99.90;;;;;;5034202;28;20393;-50
2024/01/01 10:06:27;;;;;;;6.32;0.82;;;7.90;99.90;;;;;;5034729;28;20427;-52
2024/01/01 10:09:08;;;;;;;10.55;0.95;;;7.90;99.90;;;;;;5034171;28;20093;-51
2024/01/01 10:11:35;;;;;;;4.85;1.00;;;7.90;99.90;;;;;;5034348;28;20466;-53
2024/01/01 10:14:04;;;;;;;10.30;0.90;;;8.00;99.90;;;;;;5033978;28;20032;-53
2024/01/01 10:16:33;;;;;;;7.32;1.00;;;8.20;99.90;;;;;;5034272;28;20112;-51
2024/01/01 10:19:01;;;;;;;7.68;2.17;;;8.20;99.90;;;;;;5033602;28;20049;-51
2024/01/01 10:21:31;;;;;;;5.18;0.85;;;8.30;99.90;;;;;;5034127;28;20082;-52
2024/01/01 10:23:59;;;;;;;11.95;1.38;;;8.30;99.90;;;;;;5034023;28;20400;-52
2024/01/01 10:26:25;;;;;;;9.32;1.50;;;8.30;99.90;;;;;;5034344;28;20083;-53
2024/01/01 10:28:51;;;;;;;9.15;1.55;;;8.30;99.90;;;;;;5033471;28;20029;-52
2024/01/01 10:31:16;;;;;;;6.32;2.15;;;8.30;99.90;;;;;;5033991;28;20021;-53
2024/01/01 10:33:44;;;;;;;6.30;3.33;;;8.40;99.90;;;;;;5032917;28;20030;-37
2024/01/01 10:36:12;;;;;;;4.72;1.27;;;8.40;99.90;;;;;;5014152;28;20113;-37
2024/01/01 10:38:39;;;;;;;3.63;1.48;;;8.50;99.90;;;;;;5033163;28;20021;-51
2024/01/01 10:41:07;;;;;;;6.13;1.67;;;8.50;99.90;;;;;;5033274;28;20175;-51
2024/01/01 10:43:35;;;;;;;9.23;1.77;;;8.50;99.90;;;;;;5033674;28;20450;-51
2024/01/01 10:46:05;;;;;;;10.82;1.63;;;8.60;99.90;;;;;;5033442;28;20474;-49
2024/01/01 10:48:32;;;;;;;2.63;1.30;;;8.60;99.90;;;;;;5033382;28;20492;-48
2024/01/01 10:51:24;;;;;;;5.97;0.87;;;8.70;99.90;;;;;;5033550;28;20026;-51
2024/01/01 10:54:35;;;;;;;9.35;1.20;;;8.90;99.90;;;;;;5033515;28;20513;-50
2024/01/01 10:57:17;;;;;;;9.35;1.08;;;9.00;99.90;;;;;;5032248;28;20132;-51
2024/01/01 10:59:51;;;;;;;4.80;0.98;;;9.00;99.90;;;;;;5033494;28;20036;-50
2024/01/01 11:02:18;;;;;;;13.57;1.50;;;9.10;99.90;;;;;;5030832;28;20040;-52
2024/01/01 11:04:47;;;;;;;8.40;1.70;;;9.20;99.90;;;;;;5023136;28;20487;-49
2024/01/01 11:07:13;;;;;;;5.05;1.08;;;9.20;99.90;;;;;;5015067;28;20513;-52
2024/01/01 11:09:39;;;;;;;1.45;0.57;;;9.20;99.90;;;;;;5033203;28;20014;-51
2024/01/01 11:12:05;;;;;;;6.10;1.48;;;9.10;99.90;;;;;;5033150;28;20492;-52
2024/01/01 11:14:38;;;;;;;13.35;1.08;;;9.00;99.90;;;;;;5033512;28;20498;-51
2024/01/01 11:17:06;;;;;;;8.30;0.95;;;9.10;99.90;;;;;;5032561;28;20041;-49
2024/01/01 11:19:38;;;;;;;12.02;1.23;;;9.10;99.90;;;;;;5023493;28;20080;-52
2024/01/01 11:22:18;;;;;;;8.45;1.02;;;9.20;99.90;;;;;;5026956;28;20437;-51
2024/01/01 11:24:45;;;;;;;8.40;1.50;;;9.10;99.90;;;;;;5032653;28;20375;-50
2024/01/01 11:27:23;;;;;;;8.65;1.15;;;9.20;99.90;;;;;;5032844;28;20025;-50
2024/01/01 11:29:49;;;;;;;7.15;1.10;;;9.20;99.90;;;;;;5032421;28;20498;-49
2024/01/01 11:32:18;;;;;;;8.68;1.30;;;9.30;99.90;;;;;;5031608;28;20025;-46
2024/01/01 11:34:59;;;;;;;7.47;2.95;;;9.30;99.90;;;;;;5016776;28;20091;-49
2024/01/01 11:37:24;;;;;;;6.57;0.98;;;9.40;99.90;;;;;;5031882;28;20028;-49
2024/01/01 11:40:02;;;;;;;8.98;1.10;;;9.30;99.90;;;;;;5032837;28;20449;-51
2024/01/01 11:42:28;;;;;;;3.88;1.00;;;9.30;99.90;;;;;;5031546;28;20087;-49
2024/01/01 11:45:14;;;;;;;5.18;1.08;;;9.40;99.90;;;;;;5032664;28;20532;-51
2024/01/01 11:47:40;;;;;;;2.88;1.10;;;9.50;99.90;;;;;;5032516;28;20021;-51
2024/01/01 11:50:07;;;;;;;10.73;1.35;;;9.60;99.90;;;;;;5032787;28;20022;-50
2024/01/01 11:52:33;;;;;;;13.02;1.58;;;9.70;99.90;;;;;;5032744;28;20017;-49
2024/01/01 11:54:59;;;;;;;8.75;1.55;;;9.70;99.90;;;;;;5032378;28;20112;-52
2024/01/01 11:57:25;;;;;;;9.70;1.20;;;9.70;99.90;;;;;;5032715;28;20037;-56
2024/01/01 11:59:51;;;;;;;3.10;0.98;;;9.60;99.90;;;;;;5032858;28;20026;-45
2024/01/01 12:02:18;;;;;;;15.10;2.25;;;9.60;99.90;;;;;;5032364;28;20029;-49
2024/01/01 12:04:49;;;;;;;11.32;2.15;;;9.60;99.90;;;;;;5032476;28;20030;-57
2024/01/01 12:07:32;;;;;;;8.07;1.55;;;9.60;99.90;;;;;;5032581;28;20029;-50
2024/01/01 12:10:10;;;;;;;7.78;1.15;;;9.60;99.90;;;;;;5032234;28;20541;-48
2024/01/01 12:12:38;;;;;;;15.38;2.00;;;9.60;99.90;;;;;;5032851;28;20025;-55
2024/01/01 12:15:08;;;;;;;10.80;1.50;;;9.60;99.90;;;;;;5032005;28;20477;-49
2024/01/01 12:17:44;;;;;;;3.40;0.75;;;9.60;99.90;;;;;;5034619;28;20053;-48
2024/01/01 12:20:13;;;;;;;9.38;1.38;;;9.50;99.90;;;;;;5035528;28;20539;-47
2024/01/01 12:22:39;;;;;;;7.93;1.15;;;9.50;99.90;;;;;;5035991;28;20490;-45
2024/01/01 12:25:06;;;;;;;11.40;1.67;;;9.50;99.90;;;;;;5036047;28;20095;-51
2024/01/01 12:27:32;;;;;;;4.55;0.90;;;9.40;99.90;;;;;;5036202;28;20026;-47
2024/01/01 12:29:58;;;;;;;16.27;2.22;;;9.40;99.90;;;;;;5036540;28;20017;-49
2024/01/01 12:32:24;;;;;;;7.03;1.40;;;9.30;99.90;;;;;;5035825;28;20156;-52
2024/01/01 12:34:54;;;;;;;8.13;0.95;;;9.20;99.90;;;;;;5035991;28;20029;-51
2024/01/01 12:37:20;;;;;;;6.45;1.30;;;9.20;99.90;;;;;;5036218;28;20601;-51
2024/01/01 12:39:46;;;;;;;12.70;2.33;;;9.20;99.90;;;;;;5026970;28;20042;-50
2024/01/01 12:42:11;;;;;;;7.47;1.10;;;9.20;99.90;;;;;;5016580;28;20028;-50
2024/01/01 12:44:37;;;;;;;12.38;1.15;;;9.20;99.90;;;;;;5028716;28;20104;-50
2024/01/01 12:47:03;;;;;;;8.75;1.00;;;9.10;99.90;;;;;;5035436;28;20052;-49
2024/01/01 12:49:34;;;;;;;10.55;1.77;;;9.10;99.90;;;;;;5034391;28;20026;-52